IAH weather

George Bush Intercontinental Houston Airport
Houston, Texas, United States

Public forecast

Using degrees Fahrenheit for public forecast. Weather courtesy of forecast.io.

Current aviation weather report (METAR) for George Bush Intercontinental Houston Airport

Retrieved 2020/03/30 19:53 UTC (18 minutes ago):

KIAH 301953Z 16015G22KT 10SM SCT038 BKN090 BKN250 28/19 A2991 RMK AO2 SLP129 T02830189

Aviation forecast (TAF) for George Bush Intercontinental Houston Airport

Retrieved 2020/03/30 18:27 UTC (2 hours ago):

TAF KIAH 301724Z 3018/3124 VRB04KT P6SM -RA VCSH BKN010 OVC020 FM302100 15012KT P6SM BKN030 BKN070 FM310800 24010KT P6SM VCSH BKN015 BKN025 FM311300 30008KT P6SM SCT040 BKN090 FM311800 34012KT P6SM FEW250